Latest Weather Observations for Strahan

IDT60801

Issued at 8:03 pm EDT Wednesday 28 January 2015 (issued every 30 minutes, with the page automatically refreshed every 10 minutes)

About weather observations | Map of weather stations | Latest weather observations for TAS | Other Formats
Station Details ID: 097072 Name: STRAHAN AERODROME Lat: -42.16 Lon: 145.29 Height: 21.0 m
Data from the previous 72 hours. | See also: Recent months at Strahan
Date/Time
EDT
Temp
°C
App
Temp
°C
Dew
Point
Rel
Hum
%
Delta-T
°C
Wind Press
QNH
hPa
Press
MSL
hPa
Rain
since 9 am
mm
Dir
 
Spd
km/h
Gust
km/h
Spd
kts
Gust
kts
28/08:00pm 17.0 12.6 8.9 59 4.2 S 22 30 12 16 1021.8 1021.7 0.0
28/07:30pm 17.5 12.1 9.4 59 4.2 S 28 37 15 20 1021.5 1021.4 0.0
28/07:00pm 18.3 12.9 9.4 56 4.7 S 28 39 15 21 1021.3 1021.2 0.0
28/06:30pm 19.3 13.8 9.2 52 5.3 S 28 37 15 20 1021.2 1021.1 0.0
28/06:00pm 19.6 13.4 9.5 52 5.3 SSW 32 41 17 22 1021.1 1021.0 0.0
28/05:30pm 20.0 13.9 9.6 51 5.5 SSW 32 41 17 22 1021.2 1021.1 0.0
28/05:00pm 20.5 14.4 9.7 50 5.8 S 32 48 17 26 1021.4 1021.3 0.0
28/04:30pm 20.7 14.2 6.3 39 7.2 SSE 30 39 16 21 1021.3 1021.2 0.0
28/04:00pm 20.8 14.9 5.6 37 7.5 S 26 39 14 21 1021.4 1021.3 0.0
28/03:30pm 20.3 13.5 5.1 37 7.4 SSE 30 41 16 22 1021.7 1021.6 0.0
28/03:00pm 20.7 14.5 6.3 39 7.2 S 28 39 15 21 1021.8 1021.7 0.0
28/02:30pm 21.1 15.0 8.4 44 6.6 S 30 39 16 21 1022.0 1021.9 0.0
28/02:00pm 19.6 12.7 6.3 42 6.6 S 32 41 17 22 1022.3 1022.2 0.0
28/01:30pm 19.9 14.0 7.6 45 6.3 S 28 39 15 21 1022.7 1022.6 0.0
28/01:00pm 18.7 12.5 7.8 49 5.5 S 30 37 16 20 1023.0 1022.9 0.0
28/12:30pm 17.9 11.3 7.9 52 5.1 S 32 41 17 22 1023.2 1023.1 0.0
28/12:00pm 17.6 11.4 7.9 53 4.9 S 30 39 16 21 1023.4 1023.3 0.0
28/11:30am 16.7 10.3 6.8 52 4.9 SSE 30 39 16 21 1023.5 1023.4 0.0
28/11:00am 17.3 11.7 8.7 57 4.4 SSE 28 39 15 21 1023.5 1023.4 0.0
28/10:30am 15.8 10.4 7.8 59 4.0 SSE 26 37 14 20 1023.5 1023.4 0.0
28/10:00am 15.4 10.5 8.4 63 3.5 SSE 24 35 13 19 1023.7 1023.6 0.0
28/09:30am 14.5 10.1 8.9 69 2.8 SSE 22 33 12 18 1023.7 1023.6 0.0
28/09:00am 13.6 9.2 8.9 73 2.4 SE 22 32 12 17 1023.6 1023.5 0.0
28/08:30am 12.6 8.7 8.7 77 1.9 SSE 19 26 10 14 1023.3 1023.2 0.0
28/08:00am 11.3 9.2 9.6 89 0.9 ESE 11 15 6 8 1023.0 1022.9 0.0
28/07:30am 9.3 7.3 8.5 95 0.4 ESE 9 13 5 7 1022.7 1022.6 0.0
28/07:00am 6.9 4.3 6.3 96 0.3 ESE 9 11 5 6 1022.5 1022.4 0.0
28/06:30am 6.7 4.5 6.1 96 0.3 E 7 9 4 5 1022.0 1021.9 0.0
28/06:00am 6.8 3.8 6.2 96 0.3 SE 11 15 6 8 1021.7 1021.6 0.0
28/05:30am 6.6 3.5 5.7 94 0.4 ESE 11 13 6 7 1021.4 1021.3 0.0
28/05:00am 7.1 4.1 6.0 93 0.5 SE 11 15 6 8 1021.3 1021.2 0.0
28/04:30am 8.0 6.0 6.9 93 0.5 ESE 7 11 4 6 1021.2 1021.1 0.0
28/04:00am 8.3 5.5 7.1 92 0.6 ESE 11 15 6 8 1021.1 1021.0 0.0
28/03:30am 8.2 5.0 6.8 91 0.6 ESE 13 20 7 11 1021.2 1021.1 0.0
28/03:00am 8.8 5.3 7.3 90 0.7 SE 15 20 8 11 1021.4 1021.3 0.0
28/02:30am 9.1 5.3 7.5 90 0.8 SE 17 20 9 11 1021.5 1021.4 0.0
28/02:00am 9.0 6.2 6.8 86 1.0 ESE 11 17 6 9 1021.6 1021.5 0.0
28/01:30am 10.3 6.0 7.7 84 1.2 SE 20 26 11 14 1021.6 1021.5 0.0
28/01:00am 10.4 6.0 7.5 82 1.4 SE 20 30 11 16 1021.4 1021.3 0.0
28/12:30am 10.9 6.3 8.1 83 1.4 SE 22 30 12 16 1021.5 1021.4 0.0
28/12:00am 11.1 6.5 8.3 83 1.4 SE 22 32 12 17 1021.4 1021.3 0.0
 
Date/Time
EDT
Temp
°C
App
Temp
°C
Dew
Point
Rel
Hum
%
Delta-T
°C
Wind Press
QNH
hPa
Press
MSL
hPa
Rain
since 9 am
mm
Dir
 
Spd
km/h
Gust
km/h
Spd
kts
Gust
kts
27/11:30pm 11.9 5.8 8.2 78 1.8 SSE 30 43 16 23 1021.3 1021.2 0.0
27/11:00pm 11.8 6.0 8.1 78 1.8 SSE 28 37 15 20 1021.3 1021.2 0.0
27/10:30pm 12.0 6.3 8.3 78 1.8 SSE 28 39 15 21 1021.2 1021.1 0.0
27/10:00pm 12.2 6.9 8.3 77 1.9 SSE 26 39 14 21 1021.0 1020.9 0.0
27/09:30pm 12.9 7.2 8.4 74 2.2 SSE 28 39 15 21 1020.6 1020.5 0.0
27/09:00pm 13.1 9.0 8.8 75 2.2 S 20 28 11 15 1020.4 1020.3 0.0
27/08:30pm 13.7 9.1 8.1 69 2.8 S 22 32 12 17 1019.9 1019.8 0.0
27/08:00pm 14.5 9.9 8.2 66 3.1 S 22 30 12 16 1019.6 1019.5 0.0
27/07:30pm 15.4 10.5 8.4 63 3.5 S 24 30 13 16 1019.3 1019.2 0.0
27/07:00pm 16.1 10.3 8.1 59 4.0 SSW 28 35 15 19 1019.1 1019.0 0.0
27/06:30pm 16.6 11.0 8.6 59 4.1 SSW 28 39 15 21 1018.9 1018.8 0.0
27/06:00pm 17.0 11.2 7.9 55 4.6 SSW 28 37 15 20 1018.8 1018.7 0.0
27/05:30pm 18.1 12.7 9.5 57 4.5 SSW 28 39 15 21 1018.9 1018.8 0.0
27/05:00pm 16.8 11.3 9.2 61 3.9 SSW 28 37 15 20 1018.8 1018.7 0.0
27/04:30pm 17.5 12.2 8.6 56 4.6 SSW 26 33 14 18 1018.8 1018.7 0.0
27/04:00pm 17.4 12.6 8.8 57 4.4 SW 24 32 13 17 1018.8 1018.7 0.0
27/03:30pm 16.7 12.7 8.4 58 4.2 S 19 32 10 17 1018.8 1018.7 0.0
27/03:00pm 18.2 14.4 9.8 58 4.4 SSW 20 32 11 17 1018.7 1018.6 0.0
27/02:30pm 16.5 12.8 8.0 57 4.3 S 17 28 9 15 1018.7 1018.6 0.0
27/02:00pm 16.2 12.7 7.4 56 4.4 SSW 15 26 8 14 1018.9 1018.8 0.0
27/01:30pm 16.6 13.1 8.8 60 4.0 SSW 17 24 9 13 1019.1 1019.0 0.0
27/01:00pm 14.9 11.8 8.8 67 3.1 SSW 15 24 8 13 1019.1 1019.0 0.0
27/12:30pm 14.5 11.5 7.8 64 3.3 SSE 13 20 7 11 1019.3 1019.2 0.0
27/12:00pm 16.0 13.1 9.7 66 3.3 ESE 15 20 8 11 1019.2 1019.1 0.0
27/11:30am 14.5 10.9 9.7 73 2.5 SE 19 28 10 15 1019.2 1019.1 0.0
27/11:00am 14.9 12.8 8.2 64 3.4 S 9 15 5 8 1019.2 1019.1 0.0
27/10:30am 14.7 13.2 8.4 66 3.2 SSW 6 11 3 6 1019.1 1019.0 0.0
27/10:00am 15.1 13.5 8.8 66 3.2 ENE 7 11 4 6 1019.0 1018.9 0.0
27/09:30am 15.0 13.6 9.4 69 2.9 ESE 7 13 4 7 1019.1 1019.0 0.0
27/09:00am 12.4 10.7 8.5 77 1.9 ENE 7 9 4 5 1018.8 1018.7 0.2
27/08:30am 11.2 9.2 8.6 84 1.3 E 9 11 5 6 1018.6 1018.5 0.2
27/08:00am 10.1 8.5 8.9 92 0.6 E 7 9 4 5 1018.4 1018.3 0.2
27/07:30am 8.2 6.4 7.0 92 0.6 ENE 6 7 3 4 1018.2 1018.1 0.2
27/07:00am 7.6 5.4 6.4 92 0.5 ENE 7 9 4 5 1017.9 1017.8 0.2
27/06:30am 7.5 4.6 6.3 92 0.5 NNE 11 13 6 7 1017.6 1017.5 0.2
27/06:00am 7.7 5.2 6.5 92 0.5 NNE 9 11 5 6 1017.5 1017.4 0.2
27/05:30am 7.4 5.2 6.2 92 0.5 NE 7 9 4 5 1017.3 1017.2 0.2
27/05:00am 7.7 5.2 6.5 92 0.5 NE 9 11 5 6 1017.1 1017.0 0.2
27/04:30am 7.5 4.9 6.3 92 0.5 NE 9 11 5 6 1017.0 1016.9 0.2
27/04:00am 7.7 5.5 6.3 91 0.6 NNE 7 11 4 6 1017.1 1017.0 0.2
27/03:30am 8.0 5.5 6.6 91 0.6 NNE 9 11 5 6 1017.5 1017.4 0.2
27/03:00am 8.2 5.7 6.7 90 0.7 NE 9 11 5 6 1017.8 1017.7 0.2
27/02:30am 8.7 6.3 6.8 88 0.9 NE 9 11 5 6 1018.0 1017.9 0.2
27/02:00am 9.1 7.1 7.2 88 0.9 NE 7 9 4 5 1018.1 1018.0 0.2
27/01:30am 9.5 7.2 7.6 88 0.9 NNE 9 13 5 7 1018.1 1018.0 0.2
27/01:00am 9.7 8.1 7.8 88 0.9 NNE 6 9 3 5 1018.1 1018.0 0.2
27/12:30am 9.6 7.4 7.7 88 0.9 NE 9 11 5 6 1018.0 1017.9 0.2
27/12:00am 9.3 7.4 7.4 88 0.9 NE 7 9 4 5 1018.1 1018.0 0.2
 
Date/Time
EDT
Temp
°C
App
Temp
°C
Dew
Point
Rel
Hum
%
Delta-T
°C
Wind Press
QNH
hPa
Press
MSL
hPa
Rain
since 9 am
mm
Dir
 
Spd
km/h
Gust
km/h
Spd
kts
Gust
kts
26/11:30pm 9.7 7.4 7.5 86 1.0 NNE 9 13 5 7 1018.3 1018.2 0.2
26/11:00pm 10.2 8.4 8.0 86 1.1 NNE 7 11 4 6 1018.2 1018.1 0.2
26/10:30pm 11.0 9.3 8.2 83 1.4 NE 7 9 4 5 1018.3 1018.2 0.2
26/10:00pm 11.5 9.9 7.8 78 1.8 NNE 6 7 3 4 1018.3 1018.2 0.2
26/09:30pm 11.6 10.9 7.1 74 2.2 CALM 0 6 0 3 1018.0 1017.9 0.2
26/09:00pm 12.2 10.4 7.3 72 2.4 W 6 11 3 6 1017.8 1017.7 0.2
26/08:30pm 13.0 11.0 7.2 68 2.8 W 7 9 4 5 1017.5 1017.4 0.2
26/08:00pm 13.5 11.5 7.1 65 3.1 W 7 11 4 6 1017.2 1017.1 0.2
26/07:30pm 13.6 11.1 6.7 63 3.3 W 9 13 5 7 1017.1 1017.0 0.2
26/07:00pm 13.7 10.3 5.8 59 3.7 W 13 19 7 10 1017.0 1016.9 0.2
26/06:30pm 15.1 11.3 5.9 54 4.4 W 15 22 8 12 1016.8 1016.7 0.2
26/06:00pm 14.8 10.8 5.1 52 4.6 W 15 22 8 12 1016.6 1016.5 0.2
26/05:30pm 16.2 11.6 5.5 49 5.1 WSW 19 28 10 15 1016.7 1016.6 0.2
26/05:00pm 16.4 11.6 5.4 48 5.3 W 20 28 11 15 1016.8 1016.7 0.2
26/04:30pm 16.6 12.4 5.6 48 5.3 W 17 24 9 13 1016.7 1016.6 0.2
26/04:00pm 16.7 11.8 5.3 47 5.5 W 20 26 11 14 1016.9 1016.8 0.2
26/03:30pm 17.0 11.5 5.9 48 5.4 W 24 30 13 16 1017.1 1017.0 0.2
26/03:00pm 16.5 11.5 6.3 51 5.0 WSW 22 33 12 18 1016.9 1016.8 0.2
26/02:30pm 16.9 12.0 5.2 46 5.6 W 20 30 11 16 1016.8 1016.7 0.2
26/02:00pm 17.2 12.8 7.3 52 5.0 W 20 30 11 16 1016.8 1016.7 0.2
26/01:30pm 16.5 11.8 6.1 50 5.1 W 20 32 11 17 1016.9 1016.8 0.2
26/01:00pm 15.5 10.7 5.4 51 4.8 WSW 20 32 11 17 1016.8 1016.7 0.2
26/12:30pm 16.7 13.2 8.9 60 4.0 WSW 17 22 9 12 1016.7 1016.6 0.2
26/12:00pm 16.2 11.2 8.2 59 4.0 WSW 24 32 13 17 1016.6 1016.5 0.2
26/11:30am 15.1 9.9 8.8 66 3.2 WSW 26 32 14 17 1016.5 1016.4 0.2
26/11:00am 13.7 8.7 8.1 69 2.8 WSW 24 32 13 17 1016.3 1016.2 0.0
26/10:30am 14.2 10.1 8.6 69 2.8 WSW 20 32 11 17 1015.7 1015.6 0.0
26/10:00am 13.4 9.1 7.2 66 3.0 WSW 19 24 10 13 1015.3 1015.3 0.0
26/09:30am 12.3 9.2 9.0 80 1.7 WSW 15 20 8 11 1015.1 1015.1 0.0
26/09:00am 12.6 9.5 8.7 77 1.9 WSW 15 22 8 12 1014.6 1014.6 5.6
26/08:30am 11.5 9.1 8.7 83 1.4 W 11 15 6 8 1014.3 1014.3 5.6
26/08:00am 10.9 10.1 9.7 92 0.6 SW 4 7 2 4 1013.7 1013.7 5.6
26/07:30am 10.0 8.0 8.8 92 0.6 S 9 13 5 7 1013.1 1013.1 5.6
26/07:28am 9.9 7.5 8.7 92 0.6 S 11 15 6 8 1013.1 1013.1 5.6
26/07:09am 9.6 5.5 7.9 89 0.8 SW 19 35 10 19 1013.1 1013.1 5.2
26/07:06am 10.0 7.1 8.1 88 0.9 SSW 13 35 7 19 1013.0 1013.0 5.0
26/07:00am 10.3 8.6 8.4 88 0.9 SSW 7 11 4 6 1012.7 1012.7 4.8
26/06:30am 10.1 7.9 8.0 87 1.0 WSW 9 13 5 7 1012.2 1012.2 4.8
26/06:00am 10.1 6.9 8.4 89 0.8 SW 15 24 8 13 1011.8 1011.8 4.8
26/05:30am 9.6 7.5 8.2 91 0.7 SW 9 11 5 6 1011.2 1011.2 4.8
26/05:00am 9.8 7.3 8.2 90 0.8 WSW 11 15 6 8 1011.0 1011.0 4.8
26/04:56am 9.7 6.8 8.1 90 0.8 WSW 13 17 7 9 1010.9 1010.9 4.8
26/04:39am 9.7 5.7 8.1 90 0.8 WSW 19 35 10 19 1010.9 1010.9 4.4
26/04:30am 9.9 7.4 8.0 88 0.9 S 11 15 6 8 1010.7 1010.7 3.8
26/04:00am 10.3 6.0 7.9 85 1.2 SW 20 33 11 18 1010.6 1010.6 3.8
26/03:30am 10.1 6.7 7.5 84 1.2 WSW 15 19 8 10 1010.4 1010.4 3.8
26/03:00am 8.9 6.5 6.9 87 0.9 SW 9 13 5 7 1010.1 1010.1 3.8
26/02:30am 10.4 6.4 8.2 86 1.1 W 19 35 10 19 1009.9 1009.9 3.8
26/02:00am 10.0 5.8 7.3 83 1.3 WSW 19 26 10 14 1009.7 1009.7 3.8
26/01:30am 10.4 6.8 8.2 86 1.1 WSW 17 24 9 13 1009.6 1009.6 3.6
26/01:11am 9.4 6.3 7.2 86 1.0 WSW 13 20 7 11 1009.5 1009.5 3.6
26/01:00am 9.6 5.2 7.4 86 1.0 WSW 20 37 11 20 1009.5 1009.5 3.6
26/12:54am 9.9 4.7 7.2 83 1.3 W 24 37 13 20 1009.6 1009.6 3.2
26/12:30am 11.1 5.9 7.2 77 1.9 WSW 24 30 13 16 1009.3 1009.3 2.4
26/12:00am 11.0 5.9 7.5 79 1.7 W 24 37 13 20 1009.0 1009.0 2.4
 
Date/Time
EDT
Temp
°C
App
Temp
°C
Dew
Point
Rel
Hum
%
Delta-T
°C
Wind Press
QNH
hPa
Press
MSL
hPa
Rain
since 9 am
mm
Dir
 
Spd
km/h
Gust
km/h
Spd
kts
Gust
kts
25/11:30pm 10.0 5.6 7.3 83 1.3 WSW 20 28 11 15 1008.6 1008.6 2.4
25/11:18pm 10.0 3.7 7.6 85 1.1 WSW 30 48 16 26 1008.6 1008.6 2.4
25/11:00pm 11.1 4.7 7.0 76 2.0 WNW 30 39 16 21 1008.4 1008.4 2.4
25/10:30pm 9.9 5.5 7.5 85 1.1 WNW 20 26 11 14 1008.3 1008.3 2.4
25/10:22pm 9.7 3.7 7.0 83 1.3 WNW 28 46 15 25 1008.2 1008.2 2.4
25/10:17pm 10.3 5.0 6.8 79 1.6 WNW 24 46 13 25 1008.2 1008.2 2.2
25/10:00pm 11.0 7.3 7.9 81 1.5 WNW 17 26 9 14 1008.1 1008.1 2.2
25/09:30pm 10.6 5.6 8.0 84 1.3 WNW 24 37 13 20 1007.8 1007.8 2.2
25/09:00pm 9.6 5.6 6.5 81 1.4 W 17 24 9 13 1007.4 1007.4 2.0
25/08:50pm 9.8 3.2 6.2 78 1.7 W 30 52 16 28 1007.4 1007.4 2.0
25/08:45pm 10.6 4.5 6.4 75 2.0 W 28 52 15 28 1007.4 1007.4 2.0
25/08:30pm 11.4 6.2 5.5 67 2.7 W 22 30 12 16 1007.2 1007.2 1.8

Other Formats:

Comma delimited format used in spreadsheet applications
http://www.bom.gov.au/fwo/IDT60801/IDT60801.94956.axf

JavaScript Object Notation format (JSON) in row-major order
http://www.bom.gov.au/fwo/IDT60801/IDT60801.94956.json